Weather History for KCKI - December, 2013

Change the Weather History Date:

Tuesday, December 17, 2013

  Actual Average Record
Temperature  
Mean Temperature 50 °F -  
Max Temperature 64 °F 59 °F 64 °F (2012)
Min Temperature 37 °F 33 °F 35 °F (2014)
Degree Days  
Heating Degree Days 14    
Moisture  
Dew Point 34 °F    
Average Humidity 54    
Maximum Humidity 93    
Minimum Humidity 30    
Precipitation  
Precipitation 0.00 in - - ()
Sea Level Pressure  
Sea Level Pressure 30.13 in    
Wind  
Wind Speed 3 mph (SSW)    
Max Wind Speed 12 mph    
Max Gust Speed 18 mph    
Visibility 10 miles    
Events      
Averages and records for this station are not official NWS values.
T = Trace of Precipitation, MM = Missing Value Source: NWS Daily Summary

Daily Weather History Graph

Daily Weather History Graph

Search for Another Location

Airport or City:

Trip Planner

Search our weather history database for the weather conditions in past years. The results will help you decide how hot, cold, wet, or windy it might be!

Date:

Astronomy

Dec. 17, 2013 Rise Set
Actual Time 7:18 AM EST 5:13 PM EST
Civil Twilight 6:50 AM EST 5:40 PM EST
Nautical Twilight 6:19 AM EST 6:12 PM EST
Astronomical Twilight 5:48 AM EST 6:42 PM EST
Moon 5:48 PM EST (12/17) 7:15 AM EST (12/17)
Length of Visible Light 10h 50m
Length of Day
9h 55m
Full, 100% of the Moon is Illuminated
Dec 17
Full
Dec 25
Last Quarter
Jan 1
New
Jan 7
First Quarter
Jan 15
Full

Hourly Weather History & Observations

Time (EST) Temp. Windchill Dew Point Humidity Pressure Visibility Wind Dir Wind Speed Gust Speed Precip Events Conditions
12:15 AM 42.8 °F - 37.4 °F 81% 30.20 in 10.0 mi Calm Calm - N/A   Clear
1:15 AM 41.0 °F - 37.4 °F 87% 30.19 in 10.0 mi Calm Calm - N/A   Clear
1:35 AM 42.8 °F - 39.2 °F 87% 30.19 in 10.0 mi Calm Calm - N/A   Clear
1:55 AM 41.0 °F - 37.4 °F 87% 30.19 in 10.0 mi Calm Calm - N/A   Clear
2:15 AM 42.8 °F - 37.4 °F 81% 30.19 in 10.0 mi Calm Calm - N/A   Clear
2:35 AM 41.0 °F - 35.6 °F 81% 30.19 in 10.0 mi Calm Calm - N/A   Clear
2:55 AM 39.2 °F - 37.4 °F 93% 30.19 in 10.0 mi Calm Calm - N/A   Clear
3:15 AM 41.0 °F - 35.6 °F 81% 30.20 in 10.0 mi Calm Calm - N/A   Clear
3:35 AM 42.8 °F - 35.6 °F 76% 30.21 in 10.0 mi Calm Calm - N/A   Clear
3:55 AM 42.8 °F 41.1 °F 33.8 °F 70% 30.21 in 10.0 mi SW 3.5 mph - N/A   Clear
4:15 AM 42.8 °F - 33.8 °F 70% 30.20 in 10.0 mi Calm Calm - N/A   Clear
4:35 AM 42.8 °F - 33.8 °F 70% 30.20 in 10.0 mi Calm Calm - N/A   Clear
4:55 AM 39.2 °F - 33.8 °F 81% 30.19 in 10.0 mi Calm Calm - N/A   Clear
5:15 AM 41.0 °F - 33.8 °F 76% 30.19 in 10.0 mi Calm Calm - N/A   Clear
5:35 AM 39.2 °F - 33.8 °F 81% 30.18 in 10.0 mi Calm Calm - N/A   Clear
5:55 AM 39.2 °F - 33.8 °F 81% 30.17 in 10.0 mi Calm Calm - N/A   Clear
6:15 AM 37.4 °F - 33.8 °F 87% 30.18 in 10.0 mi Calm Calm - N/A   Clear
6:35 AM 39.2 °F - 33.8 °F 81% 30.19 in 10.0 mi Calm Calm - N/A   Clear
6:55 AM 41.0 °F - 33.8 °F 76% 30.19 in 10.0 mi Calm Calm - N/A   Clear
7:15 AM 41.0 °F - 33.8 °F 76% 30.19 in 10.0 mi Calm Calm - N/A   Clear
7:35 AM 41.0 °F - 33.8 °F 76% 30.19 in 10.0 mi Calm Calm - N/A   Clear
7:55 AM 37.4 °F - 35.6 °F 93% 30.19 in 10.0 mi Calm Calm - N/A   Clear
8:15 AM 42.8 °F - 35.6 °F 76% 30.19 in 10.0 mi Calm Calm - N/A   Clear
8:35 AM 44.6 °F - 35.6 °F 71% 30.19 in 10.0 mi Calm Calm - N/A   Clear
8:55 AM 46.4 °F 45.2 °F 35.6 °F 66% 30.19 in 10.0 mi SW 3.5 mph - N/A   Clear
9:15 AM 48.2 °F - 37.4 °F 66% 30.20 in 10.0 mi SW 3.5 mph - N/A   Clear
9:35 AM 50.0 °F - 35.6 °F 58% 30.20 in 10.0 mi SW 8.1 mph - N/A   Clear
9:55 AM 51.8 °F - 35.6 °F 54% 30.20 in 10.0 mi SW 4.6 mph - N/A   Clear
10:15 AM 53.6 °F - 35.6 °F 51% 30.20 in 10.0 mi WSW 8.1 mph - N/A   Clear
10:35 AM 55.4 °F - 35.6 °F 47% 30.20 in 10.0 mi SW 6.9 mph - N/A   Clear
10:55 AM 59.0 °F - 35.6 °F 42% 30.19 in 10.0 mi SW 6.9 mph - N/A   Clear
11:15 AM 59.0 °F - 35.6 °F 42% 30.19 in 10.0 mi WSW 8.1 mph - N/A   Clear
11:35 AM 60.8 °F - 35.6 °F 39% 30.17 in 10.0 mi SW 8.1 mph - N/A   Clear
11:55 AM 62.6 °F - 33.8 °F 34% 30.16 in 10.0 mi SW 9.2 mph 17.3 mph N/A   Clear
12:15 PM 62.6 °F - 33.8 °F 34% 30.14 in 10.0 mi SSW 9.2 mph - N/A   Clear
12:35 PM 64.4 °F - 35.6 °F 34% 30.12 in 10.0 mi South 11.5 mph - N/A   Clear
12:55 PM 64.4 °F - 33.8 °F 32% 30.11 in 10.0 mi SSW 8.1 mph 17.3 mph N/A   Clear
1:15 PM 64.4 °F - 33.8 °F 32% 30.10 in 10.0 mi WSW 9.2 mph 16.1 mph N/A   Clear
1:35 PM 64.4 °F - 35.6 °F 34% 30.09 in 10.0 mi SSW 9.2 mph 17.3 mph N/A   Clear
1:55 PM 64.4 °F - 33.8 °F 32% 30.09 in 10.0 mi SSW 11.5 mph 16.1 mph N/A   Clear
2:15 PM 64.4 °F - 33.8 °F 32% 30.08 in 10.0 mi SSW 8.1 mph - N/A   Clear
2:35 PM 64.4 °F - 33.8 °F 32% 30.08 in 10.0 mi SSW 8.1 mph - N/A   Clear
2:55 PM 64.4 °F - 33.8 °F 32% 30.07 in 10.0 mi SSW 10.4 mph - N/A   Clear
3:15 PM 64.4 °F - 33.8 °F 32% 30.07 in 10.0 mi SSW 6.9 mph 17.3 mph N/A   Clear
3:35 PM 64.4 °F - 33.8 °F 32% 30.06 in 10.0 mi SSW 9.2 mph - N/A   Clear
3:55 PM 64.4 °F - 32.0 °F 30% 30.06 in 10.0 mi SSW 11.5 mph 17.3 mph N/A   Clear
4:15 PM 64.4 °F - 32.0 °F 30% 30.06 in 10.0 mi SSW 10.4 mph 18.4 mph N/A   Clear
4:35 PM 64.4 °F - 32.0 °F 30% 30.05 in 10.0 mi SSW 9.2 mph - N/A   Clear
4:55 PM 62.6 °F - 32.0 °F 32% 30.05 in 10.0 mi SSW 6.9 mph - N/A   Clear
5:15 PM 60.8 °F - 32.0 °F 34% 30.05 in 10.0 mi South 6.9 mph - N/A   Clear
5:35 PM 60.8 °F - 32.0 °F 34% 30.05 in 10.0 mi SSW 5.8 mph - N/A   Clear
5:55 PM 59.0 °F - 32.0 °F 36% 30.05 in 10.0 mi South 4.6 mph - N/A   Clear
6:15 PM 59.0 °F - 32.0 °F 36% 30.06 in 10.0 mi Calm Calm - N/A   Clear
6:35 PM 55.4 °F - 33.8 °F 44% 30.05 in 10.0 mi South 4.6 mph - N/A   Clear
6:55 PM 55.4 °F - 33.8 °F 44% 30.06 in 10.0 mi SSW 3.5 mph - N/A   Clear
7:15 PM 55.4 °F - 33.8 °F 44% 30.06 in 10.0 mi SSW 3.5 mph - N/A   Clear
7:35 PM 55.4 °F - 33.8 °F 44% 30.06 in 10.0 mi SSW 6.9 mph - N/A   Clear
7:55 PM 55.4 °F - 33.8 °F 44% 30.06 in 10.0 mi SSW 5.8 mph - N/A   Clear
8:15 PM 55.4 °F - 33.8 °F 44% 30.06 in 10.0 mi SSW 6.9 mph - N/A   Clear
8:35 PM 55.4 °F - 33.8 °F 44% 30.06 in 10.0 mi SSW 6.9 mph - N/A   Clear
8:55 PM 55.4 °F - 33.8 °F 44% 30.05 in 10.0 mi SSW 6.9 mph - N/A   Clear
9:15 PM 55.4 °F - 33.8 °F 44% 30.05 in 10.0 mi SSW 6.9 mph - N/A   Clear
9:35 PM 55.4 °F - 33.8 °F 44% 30.05 in 10.0 mi SSW 6.9 mph - N/A   Clear
9:55 PM 55.4 °F - 35.6 °F 47% 30.05 in 10.0 mi SSW 6.9 mph - N/A   Clear
10:15 PM 55.4 °F - 35.6 °F 47% 30.06 in 10.0 mi SW 6.9 mph - N/A   Clear
10:35 PM 53.6 °F - 35.6 °F 51% 30.06 in 10.0 mi SW 4.6 mph - N/A   Clear
10:55 PM 53.6 °F - 35.6 °F 51% 30.07 in 10.0 mi SW 5.8 mph - N/A   Clear
11:15 PM 53.6 °F - 33.8 °F 47% 30.07 in 10.0 mi SW 5.8 mph - N/A   Clear
11:35 PM 55.4 °F - 33.8 °F 44% 30.07 in 10.0 mi SW 6.9 mph - N/A   Clear
11:55 PM 53.6 °F - 33.8 °F 47% 30.07 in 10.0 mi SW 8.1 mph - N/A   Clear